sensor_id;sensor_type;location;lat;lon;timestamp;pressure;altitude;pressure_sealevel;temperature;humidity
9009;BME280;62813;51.424;6.762;2023-04-01T00:01:15;99043.16;;;10.16;92.72
9009;BME280;62813;51.424;6.762;2023-04-01T00:03:43;99043.66;;;10.21;92.37
9009;BME280;62813;51.424;6.762;2023-04-01T00:06:15;99045.84;;;10.27;92.43
9009;BME280;62813;51.424;6.762;2023-04-01T00:08:43;99043.47;;;10.24;92.05
9009;BME280;62813;51.424;6.762;2023-04-01T00:11:11;99037.34;;;10.25;92.72
9009;BME280;62813;51.424;6.762;2023-04-01T00:13:38;99055.50;;;10.25;92.05
9009;BME280;62813;51.424;6.762;2023-04-01T00:16:05;99044.41;;;10.23;92.12
9009;BME280;62813;51.424;6.762;2023-04-01T00:18:46;99044.59;;;10.20;92.59
9009;BME280;62813;51.424;6.762;2023-04-01T00:21:14;99045.34;;;10.22;92.82
9009;BME280;62813;51.424;6.762;2023-04-01T00:23:42;99042.75;;;10.22;92.70
9009;BME280;62813;51.424;6.762;2023-04-01T00:26:08;99052.38;;;10.20;92.91
9009;BME280;62813;51.424;6.762;2023-04-01T00:28:35;99047.94;;;10.22;92.92
9009;BME280;62813;51.424;6.762;2023-04-01T00:31:10;99044.41;;;10.23;92.79
9009;BME280;62813;51.424;6.762;2023-04-01T00:33:37;99046.47;;;10.18;92.97
9009;BME280;62813;51.424;6.762;2023-04-01T00:36:12;99044.81;;;10.17;93.37
9009;BME280;62813;51.424;6.762;2023-04-01T00:38:40;99050.19;;;10.14;93.04
9009;BME280;62813;51.424;6.762;2023-04-01T00:41:10;99049.47;;;10.12;93.65
9009;BME280;62813;51.424;6.762;2023-04-01T00:43:48;99052.28;;;10.09;94.21
9009;BME280;62813;51.424;6.762;2023-04-01T00:46:15;99044.56;;;10.07;94.18
9009;BME280;62813;51.424;6.762;2023-04-01T00:48:46;99043.56;;;10.10;94.27
9009;BME280;62813;51.424;6.762;2023-04-01T00:51:17;99043.56;;;10.10;94.46
9009;BME280;62813;51.424;6.762;2023-04-01T00:53:48;99041.91;;;10.09;94.33
9009;BME280;62813;51.424;6.762;2023-04-01T00:56:37;99039.09;;;10.12;93.64
9009;BME280;62813;51.424;6.762;2023-04-01T00:59:26;99045.22;;;10.11;93.43
9009;BME280;62813;51.424;6.762;2023-04-01T01:01:53;99046.88;;;10.12;93.63
9009;BME280;62813;51.424;6.762;2023-04-01T01:04:32;99030.50;;;10.11;93.68
9009;BME280;62813;51.424;6.762;2023-04-01T01:10:02;99028.72;;;10.12;93.20
9009;BME280;62813;51.424;6.762;2023-04-01T01:20:44;99027.19;;;10.09;92.56
9009;BME280;62813;51.424;6.762;2023-04-01T01:26:44;99025.72;;;10.05;92.58
9009;BME280;62813;51.424;6.762;2023-04-01T01:38:11;99023.00;;;10.06;91.75
9009;BME280;62813;51.424;6.762;2023-04-01T01:40:43;99015.03;;;10.10;91.77
9009;BME280;62813;51.424;6.762;2023-04-01T01:43:14;99018.34;;;10.12;91.43
9009;BME280;62813;51.424;6.762;2023-04-01T01:45:47;99015.78;;;10.12;91.41
9009;BME280;62813;51.424;6.762;2023-04-01T01:48:16;99007.28;;;10.10;91.15
9009;BME280;62813;51.424;6.762;2023-04-01T01:50:45;99019.06;;;10.14;90.72
9009;BME280;62813;51.424;6.762;2023-04-01T01:53:13;99004.16;;;10.17;90.98
9009;BME280;62813;51.424;6.762;2023-04-01T01:55:42;99015.59;;;10.15;90.67
9009;BME280;62813;51.424;6.762;2023-04-01T01:58:15;99019.06;;;10.14;90.22
9009;BME280;62813;51.424;6.762;2023-04-01T02:00:48;99017.41;;;10.13;91.01
9009;BME280;62813;51.424;6.762;2023-04-01T02:03:17;99029.56;;;10.12;91.54
9009;BME280;62813;51.424;6.762;2023-04-01T02:05:44;99026.03;;;10.13;91.48
9009;BME280;62813;51.424;6.762;2023-04-01T02:08:22;99022.00;;;10.09;91.95
9009;BME280;62813;51.424;6.762;2023-04-01T02:11:04;99023.00;;;10.06;92.34
9009;BME280;62813;51.424;6.762;2023-04-01T02:14:01;99017.00;;;10.06;92.22
9009;BME280;62813;51.424;6.762;2023-04-01T02:16:36;99030.91;;;10.05;92.72
9009;BME280;62813;51.424;6.762;2023-04-01T02:19:06;99028.41;;;10.03;92.92
9009;BME280;62813;51.424;6.762;2023-04-01T02:21:37;99042.84;;;10.08;92.88
9009;BME280;62813;51.424;6.762;2023-04-01T02:24:10;99041.25;;;10.05;92.89
9009;BME280;62813;51.424;6.762;2023-04-01T02:26:38;99035.06;;;10.08;92.77
9009;BME280;62813;51.424;6.762;2023-04-01T02:29:08;99036.81;;;10.07;92.58
9009;BME280;62813;51.424;6.762;2023-04-01T02:31:37;99050.63;;;10.08;93.13
9009;BME280;62813;51.424;6.762;2023-04-01T02:34:04;99059.22;;;10.08;93.53
9009;BME280;62813;51.424;6.762;2023-04-01T02:36:31;99055.81;;;10.08;93.89
9009;BME280;62813;51.424;6.762;2023-04-01T02:38:58;99050.50;;;10.09;93.97
9009;BME280;62813;51.424;6.762;2023-04-01T02:41:28;99055.81;;;10.08;94.48
9009;BME280;62813;51.424;6.762;2023-04-01T02:43:56;99051.75;;;10.03;94.92
9009;BME280;62813;51.424;6.762;2023-04-01T02:46:25;99053.50;;;10.03;95.07
9009;BME280;62813;51.424;6.762;2023-04-01T02:48:51;99052.47;;;10.05;95.15
9009;BME280;62813;51.424;6.762;2023-04-01T02:51:18;99054.94;;;10.07;95.17
9009;BME280;62813;51.424;6.762;2023-04-01T02:53:45;99055.59;;;10.11;94.95
9009;BME280;62813;51.424;6.762;2023-04-01T02:56:12;99048.63;;;10.11;95.05
9009;BME280;62813;51.424;6.762;2023-04-01T02:58:38;99053.72;;;10.13;95.37
9009;BME280;62813;51.424;6.762;2023-04-01T03:01:07;99051.03;;;10.01;96.42
9009;BME280;62813;51.424;6.762;2023-04-01T03:03:35;99052.69;;;10.02;96.23
9009;BME280;62813;51.424;6.762;2023-04-01T03:06:06;99057.66;;;10.05;96.34
9009;BME280;62813;51.424;6.762;2023-04-01T03:08:33;99052.34;;;10.07;96.15
9009;BME280;62813;51.424;6.762;2023-04-01T03:11:00;99058.41;;;10.08;95.94
9009;BME280;62813;51.424;6.762;2023-04-01T03:13:27;99056.81;;;10.05;96.40
9009;BME280;62813;51.424;6.762;2023-04-01T03:15:53;99054.13;;;10.06;96.25
9009;BME280;62813;51.424;6.762;2023-04-01T03:18:21;99065.41;;;10.05;96.17
9009;BME280;62813;51.424;6.762;2023-04-01T03:20:47;99068.22;;;10.02;96.18
9009;BME280;62813;51.424;6.762;2023-04-01T03:23:14;99069.75;;;9.92;96.40
9009;BME280;62813;51.424;6.762;2023-04-01T03:25:43;99069.03;;;9.90;96.71
9009;BME280;62813;51.424;6.762;2023-04-01T03:28:12;99067.97;;;9.93;96.83
9009;BME280;62813;51.424;6.762;2023-04-01T03:30:41;99072.53;;;9.89;96.49
9009;BME280;62813;51.424;6.762;2023-04-01T03:33:08;99074.53;;;9.98;96.65
9009;BME280;62813;51.424;6.762;2023-04-01T03:35:35;99074.63;;;9.97;96.11
9009;BME280;62813;51.424;6.762;2023-04-01T03:38:02;99081.69;;;9.95;96.34
9009;BME280;62813;51.424;6.762;2023-04-01T03:40:29;99081.88;;;9.92;96.24
9009;BME280;62813;51.424;6.762;2023-04-01T03:42:55;99080.22;;;9.91;96.49
9009;BME280;62813;51.424;6.762;2023-04-01T03:45:22;99083.63;;;9.91;96.26
9009;BME280;62813;51.424;6.762;2023-04-01T03:47:49;99084.38;;;9.93;96.57
9009;BME280;62813;51.424;6.762;2023-04-01T03:50:16;99079.22;;;9.93;96.15
9009;BME280;62813;51.424;6.762;2023-04-01T03:52:42;99080.66;;;9.97;96.07
9009;BME280;62813;51.424;6.762;2023-04-01T03:55:11;99086.56;;;9.99;96.38
9009;BME280;62813;51.424;6.762;2023-04-01T03:57:38;99075.47;;;9.97;96.02
9009;BME280;62813;51.424;6.762;2023-04-01T04:00:05;99082.31;;;9.98;96.12
9009;BME280;62813;51.424;6.762;2023-04-01T04:02:32;99084.72;;;10.01;95.91
9009;BME280;62813;51.424;6.762;2023-04-01T04:04:59;99078.78;;;9.99;96.09
9009;BME280;62813;51.424;6.762;2023-04-01T04:07:25;99085.84;;;9.97;95.81
9009;BME280;62813;51.424;6.762;2023-04-01T04:09:52;99079.00;;;9.96;96.06
9009;BME280;62813;51.424;6.762;2023-04-01T04:12:19;99078.34;;;9.93;96.02
9009;BME280;62813;51.424;6.762;2023-04-01T04:14:45;99087.69;;;9.95;95.86
9009;BME280;62813;51.424;6.762;2023-04-01T04:17:12;99075.69;;;9.94;96.13
9009;BME280;62813;51.424;6.762;2023-04-01T04:19:43;99099.50;;;9.99;96.10
9009;BME280;62813;51.424;6.762;2023-04-01T04:22:09;99093.22;;;10.03;96.02
9009;BME280;62813;51.424;6.762;2023-04-01T04:24:37;99089.97;;;10.00;96.14
9009;BME280;62813;51.424;6.762;2023-04-01T04:27:04;99089.06;;;10.01;95.89
9009;BME280;62813;51.424;6.762;2023-04-01T04:29:31;99099.34;;;10.02;96.07
9009;BME280;62813;51.424;6.762;2023-04-01T04:31:57;99098.69;;;9.99;95.78
9009;BME280;62813;51.424;6.762;2023-04-01T04:34:24;99101.38;;;9.97;96.04
9009;BME280;62813;51.424;6.762;2023-04-01T04:36:51;99099.50;;;9.99;96.15
9009;BME280;62813;51.424;6.762;2023-04-01T04:39:18;99101.50;;;9.96;95.82
9009;BME280;62813;51.424;6.762;2023-04-01T04:41:44;99105.53;;;10.00;95.98
9009;BME280;62813;51.424;6.762;2023-04-01T04:44:11;99093.31;;;10.02;95.95
9009;BME280;62813;51.424;6.762;2023-04-01T04:46:38;99102.88;;;10.01;96.09
9009;BME280;62813;51.424;6.762;2023-04-01T04:49:06;99113.41;;;9.98;95.87
9009;BME280;62813;51.424;6.762;2023-04-01T04:51:33;99105.75;;;9.97;96.04
9009;BME280;62813;51.424;6.762;2023-04-01T04:54:02;99104.91;;;9.96;96.35
9009;BME280;62813;51.424;6.762;2023-04-01T04:56:29;99110.09;;;9.96;95.88
9009;BME280;62813;51.424;6.762;2023-04-01T04:58:57;99109.06;;;9.99;96.31
9009;BME280;62813;51.424;6.762;2023-04-01T05:01:25;99115.91;;;10.00;96.54
9009;BME280;62813;51.424;6.762;2023-04-01T05:03:51;99116.53;;;10.03;96.45
9009;BME280;62813;51.424;6.762;2023-04-01T05:06:19;99113.66;;;10.08;96.12
9009;BME280;62813;51.424;6.762;2023-04-01T05:08:48;99113.31;;;10.00;96.69
9009;BME280;62813;51.424;6.762;2023-04-01T05:11:19;99113.22;;;10.01;96.74
9009;BME280;62813;51.424;6.762;2023-04-01T05:13:46;99121.00;;;10.01;97.01
9009;BME280;62813;51.424;6.762;2023-04-01T05:16:15;99125.66;;;9.96;96.88
9009;BME280;62813;51.424;6.762;2023-04-01T05:18:43;99125.38;;;10.01;96.69
9009;BME280;62813;51.424;6.762;2023-04-01T05:21:11;99118.59;;;9.98;97.24
9009;BME280;62813;51.424;6.762;2023-04-01T05:23:38;99124.00;;;9.95;96.88
9009;BME280;62813;51.424;6.762;2023-04-01T05:26:07;99127.50;;;9.94;97.02
9009;BME280;62813;51.424;6.762;2023-04-01T05:28:35;99138.88;;;9.92;97.15
9009;BME280;62813;51.424;6.762;2023-04-01T05:31:02;99131.03;;;9.93;96.84
9009;BME280;62813;51.424;6.762;2023-04-01T05:33:29;99139.53;;;9.95;97.38
9009;BME280;62813;51.424;6.762;2023-04-01T05:36:05;99138.50;;;9.98;97.27
9009;BME280;62813;51.424;6.762;2023-04-01T05:38:32;99128.97;;;9.98;96.72
9009;BME280;62813;51.424;6.762;2023-04-01T05:41:02;99136.84;;;9.97;96.65
9009;BME280;62813;51.424;6.762;2023-04-01T05:43:29;99140.97;;;9.99;96.72
9009;BME280;62813;51.424;6.762;2023-04-01T05:45:57;99138.09;;;10.04;96.71
9009;BME280;62813;51.424;6.762;2023-04-01T05:48:24;99139.66;;;10.06;96.45
9009;BME280;62813;51.424;6.762;2023-04-01T05:50:51;99144.94;;;10.05;96.47
9009;BME280;62813;51.424;6.762;2023-04-01T05:53:17;99150.13;;;10.05;96.53
9009;BME280;62813;51.424;6.762;2023-04-01T05:55:44;99148.88;;;9.98;97.00
9009;BME280;62813;51.424;6.762;2023-04-01T05:58:11;99154.25;;;9.95;96.97
9009;BME280;62813;51.424;6.762;2023-04-01T06:00:38;99156.09;;;9.93;96.82
9009;BME280;62813;51.424;6.762;2023-04-01T06:03:04;99146.59;;;9.93;97.31
9009;BME280;62813;51.424;6.762;2023-04-01T06:05:39;99152.78;;;9.91;97.40
9009;BME280;62813;51.424;6.762;2023-04-01T06:08:17;99156.84;;;9.95;97.42
9009;BME280;62813;51.424;6.762;2023-04-01T06:19:09;99154.09;;;10.11;97.53
9009;BME280;62813;51.424;6.762;2023-04-01T06:22:01;99163.66;;;10.10;97.14
9009;BME280;62813;51.424;6.762;2023-04-01T06:27:25;99172.34;;;10.09;96.81
9009;BME280;62813;51.424;6.762;2023-04-01T06:38:46;99176.31;;;10.15;96.83
9009;BME280;62813;51.424;6.762;2023-04-01T06:47:35;99180.50;;;10.30;96.73
9009;BME280;62813;51.424;6.762;2023-04-01T06:55:27;99176.78;;;10.34;96.46
9009;BME280;62813;51.424;6.762;2023-04-01T06:57:57;99180.41;;;10.31;95.85
9009;BME280;62813;51.424;6.762;2023-04-01T07:00:29;99183.09;;;10.30;95.38
9009;BME280;62813;51.424;6.762;2023-04-01T07:05:35;99187.97;;;10.34;96.19
9009;BME280;62813;51.424;6.762;2023-04-01T07:08:05;99185.50;;;10.33;96.07
9009;BME280;62813;51.424;6.762;2023-04-01T07:10:44;99180.84;;;10.38;96.25
9009;BME280;62813;51.424;6.762;2023-04-01T07:13:19;99193.41;;;10.44;95.33
9009;BME280;62813;51.424;6.762;2023-04-01T07:16:12;99201.09;;;10.46;95.35
9009;BME280;62813;51.424;6.762;2023-04-01T07:18:53;99206.56;;;10.41;95.07
9009;BME280;62813;51.424;6.762;2023-04-01T07:21:32;99198.78;;;10.41;95.56
9009;BME280;62813;51.424;6.762;2023-04-01T07:24:10;99207.41;;;10.42;96.26
9009;BME280;62813;51.424;6.762;2023-04-01T07:26:38;99209.59;;;10.48;95.82
9009;BME280;62813;51.424;6.762;2023-04-01T07:29:09;99213.63;;;10.39;95.40
9009;BME280;62813;51.424;6.762;2023-04-01T07:34:26;99222.13;;;10.41;94.44
9009;BME280;62813;51.424;6.762;2023-04-01T07:50:29;99239.38;;;10.15;95.93
9009;BME280;62813;51.424;6.762;2023-04-01T07:53:13;99242.59;;;10.19;96.09
9009;BME280;62813;51.424;6.762;2023-04-01T07:56:45;99238.34;;;10.18;96.34
9009;BME280;62813;51.424;6.762;2023-04-01T08:04:21;99266.97;;;10.16;96.76
9009;BME280;62813;51.424;6.762;2023-04-01T08:09:45;99271.78;;;10.22;96.85
9009;BME280;62813;51.424;6.762;2023-04-01T08:15:27;99277.41;;;10.29;97.20
9009;BME280;62813;51.424;6.762;2023-04-01T08:18:13;99280.72;;;10.31;96.85
9009;BME280;62813;51.424;6.762;2023-04-01T08:20:46;99279.34;;;10.25;96.43
9009;BME280;62813;51.424;6.762;2023-04-01T08:23:27;99284.16;;;10.31;96.27
9009;BME280;62813;51.424;6.762;2023-04-01T08:28:50;99291.47;;;10.25;96.92
9009;BME280;62813;51.424;6.762;2023-04-01T08:33:53;99306.09;;;10.26;97.32
9009;BME280;62813;51.424;6.762;2023-04-01T08:36:25;99307.75;;;10.27;97.05
9009;BME280;62813;51.424;6.762;2023-04-01T08:39:06;99300.19;;;10.24;96.76
9009;BME280;62813;51.424;6.762;2023-04-01T08:44:36;99311.00;;;10.30;97.08
9009;BME280;62813;51.424;6.762;2023-04-01T08:53:03;99315.72;;;10.38;96.84
9009;BME280;62813;51.424;6.762;2023-04-01T09:01:14;99324.59;;;10.34;96.92
9009;BME280;62813;51.424;6.762;2023-04-01T09:06:41;99336.94;;;10.30;96.64
9009;BME280;62813;51.424;6.762;2023-04-01T09:26:18;99353.28;;;10.59;96.29
9009;BME280;62813;51.424;6.762;2023-04-01T09:37:33;99362.69;;;10.75;96.00
9009;BME280;62813;51.424;6.762;2023-04-01T09:43:00;99365.28;;;10.75;95.09
9009;BME280;62813;51.424;6.762;2023-04-01T09:51:06;99376.38;;;10.77;96.20
9009;BME280;62813;51.424;6.762;2023-04-01T09:53:45;99375.56;;;10.76;96.53
9009;BME280;62813;51.424;6.762;2023-04-01T09:59:42;99388.63;;;10.75;96.24
9009;BME280;62813;51.424;6.762;2023-04-01T10:02:48;99386.13;;;10.73;96.63
9009;BME280;62813;51.424;6.762;2023-04-01T10:20:09;99396.41;;;10.75;96.69
9009;BME280;62813;51.424;6.762;2023-04-01T10:25:18;99405.88;;;10.76;96.48
9009;BME280;62813;51.424;6.762;2023-04-01T10:36:56;99417.91;;;10.77;96.53
9009;BME280;62813;51.424;6.762;2023-04-01T10:51:11;99432.56;;;10.78;96.90
9009;BME280;62813;51.424;6.762;2023-04-01T11:02:12;99442.75;;;10.81;96.37
9009;BME280;62813;51.424;6.762;2023-04-01T11:05:35;99447.38;;;10.76;96.37
9009;BME280;62813;51.424;6.762;2023-04-01T11:16:47;99450.75;;;10.78;97.63
9009;BME280;62813;51.424;6.762;2023-04-01T11:22:44;99467.41;;;10.74;97.75
9009;BME280;62813;51.424;6.762;2023-04-01T11:30:38;99466.66;;;10.86;98.11
9009;BME280;62813;51.424;6.762;2023-04-01T11:33:24;99467.59;;;10.85;98.13
9009;BME280;62813;51.424;6.762;2023-04-01T11:48:22;99489.81;;;10.89;98.30
9009;BME280;62813;51.424;6.762;2023-04-01T11:59:22;99498.00;;;10.83;98.43
9009;BME280;62813;51.424;6.762;2023-04-01T12:02:03;99503.06;;;10.84;98.50
9009;BME280;62813;51.424;6.762;2023-04-01T12:07:43;99511.53;;;10.74;98.74
9009;BME280;62813;51.424;6.762;2023-04-01T12:10:19;99515.91;;;10.73;98.73
9009;BME280;62813;51.424;6.762;2023-04-01T12:12:58;99514.88;;;10.76;98.61
9009;BME280;62813;51.424;6.762;2023-04-01T12:18:49;99525.53;;;10.85;97.90
9009;BME280;62813;51.424;6.762;2023-04-01T12:21:32;99524.31;;;10.91;97.24
9009;BME280;62813;51.424;6.762;2023-04-01T12:27:12;99531.94;;;11.08;97.65
9009;BME280;62813;51.424;6.762;2023-04-01T12:32:42;99540.72;;;11.20;96.57
9009;BME280;62813;51.424;6.762;2023-04-01T12:35:26;99543.94;;;11.24;96.75
9009;BME280;62813;51.424;6.762;2023-04-01T12:38:12;99543.41;;;11.19;97.23
9009;BME280;62813;51.424;6.762;2023-04-01T12:40:49;99546.94;;;11.18;97.03
9009;BME280;62813;51.424;6.762;2023-04-01T12:43:32;99546.94;;;11.18;97.27
9009;BME280;62813;51.424;6.762;2023-04-01T12:57:33;99572.19;;;11.01;97.29
9009;BME280;62813;51.424;6.762;2023-04-01T13:00:39;99574.94;;;10.98;96.87
9009;BME280;62813;51.424;6.762;2023-04-01T13:10:00;99589.31;;;10.89;97.02
9009;BME280;62813;51.424;6.762;2023-04-01T13:23:32;99602.94;;;10.79;97.93
9009;BME280;62813;51.424;6.762;2023-04-01T13:26:04;99602.75;;;10.82;97.87
9009;BME280;62813;51.424;6.762;2023-04-01T13:29:07;99606.19;;;10.82;97.65
9009;BME280;62813;51.424;6.762;2023-04-01T13:32:00;99610.44;;;10.83;97.75
9009;BME280;62813;51.424;6.762;2023-04-01T13:37:50;99616.47;;;10.84;97.68
9009;BME280;62813;51.424;6.762;2023-04-01T13:40:43;99616.28;;;10.87;97.87
9009;BME280;62813;51.424;6.762;2023-04-01T13:43:37;99613.50;;;10.90;97.78
9009;BME280;62813;51.424;6.762;2023-04-01T13:46:42;99618.16;;;10.85;98.17
9009;BME280;62813;51.424;6.762;2023-04-01T14:04:23;99629.63;;;10.81;98.84
9009;BME280;62813;51.424;6.762;2023-04-01T14:09:16;99643.19;;;10.86;98.62
9009;BME280;62813;51.424;6.762;2023-04-01T14:20:39;99661.63;;;10.81;99.03
9009;BME280;62813;51.424;6.762;2023-04-01T14:32:05;99671.75;;;10.86;98.57
9009;BME280;62813;51.424;6.762;2023-04-01T14:40:27;99678.03;;;10.82;98.61
9009;BME280;62813;51.424;6.762;2023-04-01T14:51:16;99688.38;;;10.68;98.45
9009;BME280;62813;51.424;6.762;2023-04-01T14:54:04;99685.97;;;10.65;98.55
9009;BME280;62813;51.424;6.762;2023-04-01T14:56:47;99693.56;;;10.68;99.14
9009;BME280;62813;51.424;6.762;2023-04-01T14:59:26;99693.66;;;10.66;99.38
9009;BME280;62813;51.424;6.762;2023-04-01T15:18:56;99714.22;;;10.85;99.34
9009;BME280;62813;51.424;6.762;2023-04-01T15:27:01;99727.34;;;10.82;98.75
9009;BME280;62813;51.424;6.762;2023-04-01T15:29:41;99725.00;;;10.77;99.08
9009;BME280;62813;51.424;6.762;2023-04-01T15:35:00;99731.22;;;10.75;99.50
9009;BME280;62813;51.424;6.762;2023-04-01T15:37:56;99733.81;;;10.75;99.33
9009;BME280;62813;51.424;6.762;2023-04-01T15:40:47;99739.59;;;10.80;99.20
9009;BME280;62813;51.424;6.762;2023-04-01T15:44:00;99740.31;;;10.82;99.21
9009;BME280;62813;51.424;6.762;2023-04-01T15:54:37;99754.72;;;10.87;98.51
9009;BME280;62813;51.424;6.762;2023-04-01T16:00:16;99764.16;;;10.88;98.74
9009;BME280;62813;51.424;6.762;2023-04-01T16:03:09;99765.00;;;10.89;98.95
9009;BME280;62813;51.424;6.762;2023-04-01T16:06:31;99765.84;;;10.89;99.13
9009;BME280;62813;51.424;6.762;2023-04-01T16:14:37;99779.91;;;11.01;99.15
9009;BME280;62813;51.424;6.762;2023-04-01T16:25:31;99793.63;;;11.03;98.73
9009;BME280;62813;51.424;6.762;2023-04-01T16:31:03;99796.97;;;11.05;98.65
9009;BME280;62813;51.424;6.762;2023-04-01T16:33:47;99797.34;;;10.99;98.50
9009;BME280;62813;51.424;6.762;2023-04-01T16:36:22;99799.38;;;10.94;98.79
9009;BME280;62813;51.424;6.762;2023-04-01T16:39:11;99814.25;;;10.91;98.59
9009;BME280;62813;51.424;6.762;2023-04-01T16:41:52;99808.41;;;10.87;98.62
9009;BME280;62813;51.424;6.762;2023-04-01T16:44:26;99812.84;;;10.85;98.46
9009;BME280;62813;51.424;6.762;2023-04-01T16:46:56;99823.97;;;10.87;98.97
9009;BME280;62813;51.424;6.762;2023-04-01T16:49:52;99823.22;;;10.85;98.67
9009;BME280;62813;51.424;6.762;2023-04-01T16:52:48;99822.47;;;10.83;99.01
9009;BME280;62813;51.424;6.762;2023-04-01T16:55:21;99830.25;;;10.83;98.83
9009;BME280;62813;51.424;6.762;2023-04-01T16:57:52;99829.69;;;10.78;98.80
9009;BME280;62813;51.424;6.762;2023-04-01T17:00:40;99834.78;;;10.79;99.15
9009;BME280;62813;51.424;6.762;2023-04-01T17:03:14;99838.31;;;10.78;98.76
9009;BME280;62813;51.424;6.762;2023-04-01T17:09:00;99845.59;;;10.72;99.03
9009;BME280;62813;51.424;6.762;2023-04-01T17:19:36;99862.94;;;10.71;98.98
9009;BME280;62813;51.424;6.762;2023-04-01T17:25:17;99867.31;;;10.71;99.30
9009;BME280;62813;51.424;6.762;2023-04-01T17:30:44;99878.56;;;10.70;99.25
9009;BME280;62813;51.424;6.762;2023-04-01T17:33:40;99881.94;;;10.72;99.13
9009;BME280;62813;51.424;6.762;2023-04-01T17:41:50;99892.66;;;10.66;99.54
9009;BME280;62813;51.424;6.762;2023-04-01T17:58:22;99915.75;;;10.70;99.33
9009;BME280;62813;51.424;6.762;2023-04-01T18:04:07;99927.97;;;10.68;99.46
9009;BME280;62813;51.424;6.762;2023-04-01T18:06:50;99935.78;;;10.68;99.31
9009;BME280;62813;51.424;6.762;2023-04-01T18:14:58;99951.53;;;10.65;99.49
9009;BME280;62813;51.424;6.762;2023-04-01T18:20:32;99960.28;;;10.63;99.43
9009;BME280;62813;51.424;6.762;2023-04-01T18:25:47;99963.56;;;10.66;99.26
9009;BME280;62813;51.424;6.762;2023-04-01T18:30:55;99969.69;;;10.65;99.46
9009;BME280;62813;51.424;6.762;2023-04-01T18:33:37;99980.91;;;10.66;99.18
9009;BME280;62813;51.424;6.762;2023-04-01T18:37:00;99979.97;;;10.67;99.19
9009;BME280;62813;51.424;6.762;2023-04-01T18:39:17;99986.09;;;10.66;99.58
9009;BME280;62813;51.424;6.762;2023-04-01T18:44:50;99992.97;;;10.67;99.40
9009;BME280;62813;51.424;6.762;2023-04-01T18:47:27;99991.88;;;10.71;99.42
9009;BME280;62813;51.424;6.762;2023-04-01T18:50:36;100001.34;;;10.72;99.20
9009;BME280;62813;51.424;6.762;2023-04-01T18:53:24;100005.75;;;10.70;99.54
9009;BME280;62813;51.424;6.762;2023-04-01T18:56:05;100009.44;;;10.66;99.42
9009;BME280;62813;51.424;6.762;2023-04-01T18:58:45;100011.13;;;10.67;99.25
9009;BME280;62813;51.424;6.762;2023-04-01T19:01:19;100014.03;;;10.60;99.30
9009;BME280;62813;51.424;6.762;2023-04-01T19:03:57;100010.59;;;10.60;99.34
9009;BME280;62813;51.424;6.762;2023-04-01T19:06:44;100023.66;;;10.58;99.34
9009;BME280;62813;51.424;6.762;2023-04-01T19:09:25;100026.09;;;10.61;99.11
9009;BME280;62813;51.424;6.762;2023-04-01T19:17:58;100042.50;;;10.62;99.24
9009;BME280;62813;51.424;6.762;2023-04-01T19:20:47;100046.72;;;10.65;98.71
9009;BME280;62813;51.424;6.762;2023-04-01T19:23:51;100057.97;;;10.64;98.42
9009;BME280;62813;51.424;6.762;2023-04-01T19:26:34;100052.03;;;10.61;98.64
9009;BME280;62813;51.424;6.762;2023-04-01T19:31:53;100054.91;;;10.57;98.91
9009;BME280;62813;51.424;6.762;2023-04-01T19:34:27;100065.41;;;10.54;98.97
9009;BME280;62813;51.424;6.762;2023-04-01T19:37:02;100068.19;;;10.51;98.58
9009;BME280;62813;51.424;6.762;2023-04-01T19:40:08;100066.56;;;10.48;99.08
9009;BME280;62813;51.424;6.762;2023-04-01T19:47:57;100080.94;;;10.38;98.64
9009;BME280;62813;51.424;6.762;2023-04-01T19:50:47;100096.34;;;10.41;98.07
9009;BME280;62813;51.424;6.762;2023-04-01T19:53:31;100095.59;;;10.39;97.74
9009;BME280;62813;51.424;6.762;2023-04-01T19:56:20;100092.16;;;10.39;97.89
9009;BME280;62813;51.424;6.762;2023-04-01T19:59:04;100102.75;;;10.34;97.65
9009;BME280;62813;51.424;6.762;2023-04-01T20:01:41;100110.69;;;10.31;97.05
9009;BME280;62813;51.424;6.762;2023-04-01T20:04:42;100116.03;;;10.28;96.81
9009;BME280;62813;51.424;6.762;2023-04-01T20:07:18;100122.06;;;10.28;96.84
9009;BME280;62813;51.424;6.762;2023-04-01T20:10:32;100142.13;;;10.25;97.11
9009;BME280;62813;51.424;6.762;2023-04-01T20:13:13;100144.88;;;10.22;97.17
9009;BME280;62813;51.424;6.762;2023-04-01T20:15:45;100146.09;;;10.15;96.57
9009;BME280;62813;51.424;6.762;2023-04-01T20:18:18;100152.25;;;10.12;97.32
9009;BME280;62813;51.424;6.762;2023-04-01T20:23:53;100169.09;;;10.03;96.65
9009;BME280;62813;51.424;6.762;2023-04-01T20:26:33;100168.09;;;10.06;96.38
9009;BME280;62813;51.424;6.762;2023-04-01T20:32:09;100187.44;;;9.99;95.87
9009;BME280;62813;51.424;6.762;2023-04-01T20:38:10;100194.63;;;9.94;95.25
9009;BME280;62813;51.424;6.762;2023-04-01T20:40:42;100202.47;;;9.92;95.45
9009;BME280;62813;51.424;6.762;2023-04-01T20:46:23;100211.44;;;9.85;94.34
9009;BME280;62813;51.424;6.762;2023-04-01T20:51:32;100234.84;;;9.84;93.86
9009;BME280;62813;51.424;6.762;2023-04-01T20:54:26;100220.19;;;9.83;93.96
9009;BME280;62813;51.424;6.762;2023-04-01T20:57:21;100241.41;;;9.72;94.40
9009;BME280;62813;51.424;6.762;2023-04-01T21:08:20;100264.94;;;9.48;93.46
9009;BME280;62813;51.424;6.762;2023-04-01T21:16:41;100266.03;;;9.43;93.20
9009;BME280;62813;51.424;6.762;2023-04-01T21:22:04;100284.25;;;9.41;93.31
9009;BME280;62813;51.424;6.762;2023-04-01T21:24:58;100297.59;;;9.32;92.42
9009;BME280;62813;51.424;6.762;2023-04-01T21:39:54;100324.00;;;9.40;93.59
9009;BME280;62813;51.424;6.762;2023-04-01T21:59:05;100369.25;;;9.11;94.59
9009;BME280;62813;51.424;6.762;2023-04-01T22:10:45;100402.00;;;8.90;94.70
9009;BME280;62813;51.424;6.762;2023-04-01T22:13:27;100403.69;;;8.91;95.26
9009;BME280;62813;51.424;6.762;2023-04-01T22:21:43;100414.16;;;8.88;93.77
9009;BME280;62813;51.424;6.762;2023-04-01T22:24:45;100431.47;;;8.86;93.69
9009;BME280;62813;51.424;6.762;2023-04-01T22:27:24;100433.47;;;8.80;93.53
9009;BME280;62813;51.424;6.762;2023-04-01T22:40:35;100463.53;;;8.60;92.76
9009;BME280;62813;51.424;6.762;2023-04-01T22:43:11;100460.13;;;8.60;93.21
9009;BME280;62813;51.424;6.762;2023-04-01T22:45:52;100467.41;;;8.49;93.74
9009;BME280;62813;51.424;6.762;2023-04-01T22:48:30;100464.75;;;8.50;93.46
9009;BME280;62813;51.424;6.762;2023-04-01T22:51:28;100475.13;;;8.50;93.43